DLH4U FIMP-LOWW
Flight info
| Callsign | DLH4U |
|---|---|
| Flight time | N/A |
| Altitude | 34000 |
| Route | OKMAR1 OKMAR UT665 AMBOD UA665 TSARA DCT DENLI/N0477F350 UN304 APKAK/N0472F340 UN304 MOGDU/N0471F360 UN304 DWA DCT XADOX DCT KONET/N0462F370 UG650 RASKA/N0460F360 T513 EGMEG/N0455F370 G660 JDW/N0460F360 L677 RIDEP/N0458F380 L677 CVO L617 NOZ L551 ANTAR UN133 PEREN UL863 EVIVI L863 EDIKA DCT OKANA DCT ESIRI DCT PARAK DCT BALUX DCT TORNO DCT NATEX NATEX2W |
| Aircraft | A343/H-SDE2E3FGHIJ4J5M1RWXY/LB1D1 |
Departure
| Time | 2026-05-08 21:31 |
|---|---|
| Airport | Sir Seewoosagur Ramgoolam International Airport (FIMP) |
Arrival
| Time | N/A |
|---|---|
| Airport | Vienna International Airport (LOWW) |
| Time | Latitude | Longitude | Altitude | Speed | Heading |
|---|---|---|---|---|---|
| 2026-05-08 20:52 | -20.43323 | 57.67984 | 199 ft | 0 kts | 250° |
| 2026-05-08 21:19 | -20.43317 | 57.68004 | 193 ft | 4 kts | 253° |
| 2026-05-08 21:20 | -20.43310 | 57.68032 | 206 ft | 4 kts | 259° |
| 2026-05-08 21:20 | -20.43306 | 57.68060 | 206 ft | 4 kts | 270° |
| 2026-05-08 21:20 | -20.43310 | 57.68087 | 206 ft | 4 kts | 302° |
| 2026-05-08 21:20 | -20.43320 | 57.68098 | 206 ft | 0 kts | 342° |
| 2026-05-08 21:25 | -20.43281 | 57.68085 | 201 ft | 10 kts | 342° |
| 2026-05-08 21:25 | -20.43248 | 57.68075 | 202 ft | 4 kts | 346° |
| 2026-05-08 21:26 | -20.43204 | 57.68077 | 201 ft | 9 kts | 13° |
| 2026-05-08 21:26 | -20.43126 | 57.68103 | 201 ft | 14 kts | 358° |
| 2026-05-08 21:26 | -20.43063 | 57.68044 | 203 ft | 11 kts | 297° |
| 2026-05-08 21:26 | -20.43026 | 57.67953 | 204 ft | 17 kts | 296° |
| 2026-05-08 21:27 | -20.42970 | 57.67838 | 203 ft | 17 kts | 297° |
| 2026-05-08 21:27 | -20.42917 | 57.67729 | 203 ft | 16 kts | 297° |
| 2026-05-08 21:27 | -20.42865 | 57.67623 | 201 ft | 17 kts | 299° |
| 2026-05-08 21:27 | -20.42791 | 57.67540 | 202 ft | 13 kts | 321° |
| 2026-05-08 21:28 | -20.42721 | 57.67490 | 205 ft | 11 kts | 335° |
| 2026-05-08 21:28 | -20.42645 | 57.67462 | 204 ft | 13 kts | 342° |
| 2026-05-08 21:28 | -20.42573 | 57.67407 | 205 ft | 15 kts | 308° |
| 2026-05-08 21:28 | -20.42517 | 57.67292 | 205 ft | 17 kts | 289° |
| 2026-05-08 21:29 | -20.42493 | 57.67208 | 215 ft | 8 kts | 327° |
| 2026-05-08 21:29 | -20.42460 | 57.67206 | 215 ft | 0 kts | 12° |
| 2026-05-08 21:29 | -20.42456 | 57.67210 | 214 ft | 2 kts | 33° |
| 2026-05-08 21:29 | -20.42455 | 57.67228 | 210 ft | 4 kts | 98° |
| 2026-05-08 21:30 | -20.42497 | 57.67276 | 214 ft | 14 kts | 134° |
| 2026-05-08 21:30 | -20.42552 | 57.67377 | 212 ft | 20 kts | 117° |
| 2026-05-08 21:30 | -20.42688 | 57.67658 | 207 ft | 72 kts | 117° |
| 2026-05-08 21:30 | -20.43008 | 57.68324 | 198 ft | 127 kts | 117° |
| 2026-05-08 21:31 | -20.43488 | 57.69323 | 164 ft | 173 kts | 117° |
| 2026-05-08 21:31 | -20.44051 | 57.70499 | 624 ft | 183 kts | 116° |
| 2026-05-08 21:31 | -20.44657 | 57.71740 | 1151 ft | 191 kts | 117° |
| 2026-05-08 21:31 | -20.45268 | 57.73066 | 1570 ft | 211 kts | 110° |
| 2026-05-08 21:32 | -20.45289 | 57.74686 | 1760 ft | 235 kts | 71° |
| 2026-05-08 21:32 | -20.44245 | 57.76069 | 2216 ft | 249 kts | 36° |
| 2026-05-08 21:32 | -20.42732 | 57.77003 | 2863 ft | 255 kts | 32° |
| 2026-05-08 21:32 | -20.41186 | 57.77961 | 3432 ft | 260 kts | 34° |
| 2026-05-08 21:33 | -20.39635 | 57.79003 | 3980 ft | 266 kts | 37° |
| 2026-05-08 21:33 | -20.38086 | 57.80104 | 4580 ft | 270 kts | 37° |
| 2026-05-08 21:33 | -20.36535 | 57.81236 | 5253 ft | 270 kts | 38° |
| 2026-05-08 21:33 | -20.34989 | 57.82381 | 5919 ft | 272 kts | 38° |
| 2026-05-08 21:34 | -20.33432 | 57.83544 | 6562 ft | 274 kts | 39° |
| 2026-05-08 21:34 | -20.31866 | 57.84720 | 7127 ft | 278 kts | 38° |
| 2026-05-08 21:34 | -20.30272 | 57.85912 | 7666 ft | 282 kts | 36° |
| 2026-05-08 21:34 | -20.28548 | 57.86959 | 8188 ft | 288 kts | 30° |
| 2026-05-08 21:35 | -20.26742 | 57.87929 | 8708 ft | 293 kts | 29° |
| 2026-05-08 21:35 | -20.24908 | 57.88902 | 9246 ft | 297 kts | 28° |
| 2026-05-08 21:35 | -20.23048 | 57.89894 | 9798 ft | 300 kts | 28° |
| 2026-05-08 21:35 | -20.21171 | 57.90904 | 10260 ft | 305 kts | 29° |
| 2026-05-08 21:36 | -20.19077 | 57.91500 | 10439 ft | 323 kts | 1° |
| 2026-05-08 21:36 | -20.16842 | 57.90972 | 10612 ft | 340 kts | 334° |
| 2026-05-08 21:36 | -20.14964 | 57.89380 | 10793 ft | 355 kts | 308° |
| 2026-05-08 21:36 | -20.13790 | 57.87027 | 10951 ft | 368 kts | 290° |
| 2026-05-08 21:37 | -20.12810 | 57.84470 | 11193 ft | 378 kts | 295° |
| 2026-05-08 21:37 | -20.12007 | 57.82821 | 11415 ft | 381 kts | 300° |
| 2026-05-08 21:37 | -20.10595 | 57.80406 | 11693 ft | 389 kts | 304° |
| 2026-05-08 21:37 | -20.09010 | 57.78040 | 12025 ft | 395 kts | 307° |
| 2026-05-08 21:38 | -20.06790 | 57.74979 | 12698 ft | 395 kts | 308° |
| 2026-05-08 21:38 | -20.05064 | 57.72687 | 13067 ft | 399 kts | 309° |
| 2026-05-08 21:38 | -20.03299 | 57.70385 | 13431 ft | 403 kts | 309° |
| 2026-05-08 21:38 | -20.01514 | 57.68078 | 13933 ft | 404 kts | 310° |
| 2026-05-08 21:39 | -20.00305 | 57.66522 | 14241 ft | 405 kts | 310° |
| 2026-05-08 21:39 | -19.98500 | 57.64207 | 14601 ft | 407 kts | 310° |
| 2026-05-08 21:39 | -19.96688 | 57.61888 | 15055 ft | 408 kts | 310° |
| 2026-05-08 21:39 | -19.94873 | 57.59567 | 15472 ft | 409 kts | 310° |
| 2026-05-08 21:40 | -19.93046 | 57.57234 | 15867 ft | 412 kts | 309° |
| 2026-05-08 21:40 | -19.91204 | 57.54883 | 16230 ft | 415 kts | 309° |
| 2026-05-08 21:40 | -19.89359 | 57.52530 | 16706 ft | 416 kts | 309° |
| 2026-05-08 21:41 | -19.85333 | 57.48095 | 17483 ft | 420 kts | 321° |
| 2026-05-08 21:41 | -19.83043 | 57.46165 | 17986 ft | 420 kts | 321° |
| 2026-05-08 21:41 | -19.80753 | 57.44231 | 18489 ft | 420 kts | 321° |
| 2026-05-08 21:41 | -19.78500 | 57.42313 | 18795 ft | 423 kts | 320° |
| 2026-05-08 21:42 | -19.76198 | 57.40344 | 19123 ft | 426 kts | 320° |
| 2026-05-08 21:42 | -19.73892 | 57.38367 | 19506 ft | 427 kts | 321° |
| 2026-05-08 21:42 | -19.71580 | 57.36381 | 19857 ft | 429 kts | 320° |
| 2026-05-08 21:42 | -19.69256 | 57.34384 | 20212 ft | 430 kts | 321° |
| 2026-05-08 21:43 | -19.66921 | 57.32378 | 20505 ft | 433 kts | 321° |
| 2026-05-08 21:43 | -19.64572 | 57.30360 | 20810 ft | 436 kts | 321° |
| 2026-05-08 21:43 | -19.62210 | 57.28332 | 21138 ft | 438 kts | 321° |
| 2026-05-08 21:43 | -19.59840 | 57.26296 | 21474 ft | 439 kts | 321° |
| 2026-05-08 21:44 | -19.57461 | 57.24254 | 21799 ft | 441 kts | 321° |
| 2026-05-08 21:44 | -19.55066 | 57.22199 | 22083 ft | 444 kts | 321° |
| 2026-05-08 21:44 | -19.52659 | 57.20139 | 22393 ft | 446 kts | 321° |
| 2026-05-08 21:44 | -19.50243 | 57.18067 | 22699 ft | 448 kts | 321° |
| 2026-05-08 21:45 | -19.47818 | 57.15986 | 22997 ft | 449 kts | 321° |
| 2026-05-08 21:45 | -19.45383 | 57.13899 | 23291 ft | 452 kts | 321° |
| 2026-05-08 21:45 | -19.42934 | 57.11802 | 23554 ft | 454 kts | 321° |
| 2026-05-08 21:45 | -19.40466 | 57.09688 | 23775 ft | 457 kts | 321° |
| 2026-05-08 21:46 | -19.37989 | 57.07568 | 24012 ft | 459 kts | 321° |
| 2026-05-08 21:46 | -19.35505 | 57.05444 | 24282 ft | 460 kts | 321° |
| 2026-05-08 21:46 | -19.33015 | 57.03314 | 24517 ft | 461 kts | 321° |
| 2026-05-08 21:46 | -19.30515 | 57.01178 | 24750 ft | 463 kts | 321° |
| 2026-05-08 21:47 | -19.28007 | 56.99035 | 25012 ft | 464 kts | 321° |
| 2026-05-08 21:47 | -19.25494 | 56.96889 | 25274 ft | 465 kts | 321° |
| 2026-05-08 21:47 | -19.22970 | 56.94734 | 25530 ft | 466 kts | 321° |
| 2026-05-08 21:47 | -19.20443 | 56.92578 | 25763 ft | 468 kts | 321° |
| 2026-05-08 21:48 | -19.17908 | 56.90416 | 26007 ft | 469 kts | 321° |
| 2026-05-08 21:48 | -19.15365 | 56.88247 | 26257 ft | 470 kts | 321° |
| 2026-05-08 21:48 | -19.12816 | 56.86075 | 26496 ft | 471 kts | 321° |
| 2026-05-08 21:48 | -19.10259 | 56.83897 | 26737 ft | 473 kts | 321° |
| 2026-05-08 21:49 | -19.07697 | 56.81715 | 26998 ft | 473 kts | 320° |
| 2026-05-08 21:49 | -19.05129 | 56.79528 | 27209 ft | 475 kts | 320° |
| 2026-05-08 21:49 | -19.02549 | 56.77333 | 27432 ft | 477 kts | 320° |
| 2026-05-08 21:49 | -18.99961 | 56.75133 | 27661 ft | 478 kts | 320° |
| 2026-05-08 21:50 | -18.97367 | 56.72927 | 27891 ft | 479 kts | 320° |
| 2026-05-08 21:50 | -18.94765 | 56.70717 | 28146 ft | 480 kts | 320° |
| 2026-05-08 21:50 | -18.92160 | 56.68504 | 28354 ft | 482 kts | 320° |
| 2026-05-08 21:50 | -18.89546 | 56.66283 | 28548 ft | 483 kts | 320° |
| 2026-05-08 21:51 | -18.86922 | 56.64057 | 28760 ft | 484 kts | 320° |
| 2026-05-08 21:51 | -18.84290 | 56.61823 | 28997 ft | 485 kts | 320° |
| 2026-05-08 21:51 | -18.81658 | 56.59591 | 29226 ft | 486 kts | 320° |
| 2026-05-08 21:51 | -18.79019 | 56.57353 | 29384 ft | 488 kts | 320° |
| 2026-05-08 21:52 | -18.76373 | 56.55110 | 29616 ft | 488 kts | 320° |
| 2026-05-08 21:52 | -18.73736 | 56.52878 | 30011 ft | 485 kts | 320° |
| 2026-05-08 21:52 | -18.71112 | 56.50657 | 30303 ft | 483 kts | 320° |
| 2026-05-08 21:52 | -18.68493 | 56.48440 | 30488 ft | 483 kts | 320° |
| 2026-05-08 21:53 | -18.65871 | 56.46221 | 30675 ft | 484 kts | 320° |
| 2026-05-08 21:53 | -18.63245 | 56.44001 | 30841 ft | 484 kts | 320° |
| 2026-05-08 21:53 | -18.60660 | 56.41818 | 31109 ft | 482 kts | 319° |
| 2026-05-08 21:53 | -18.58056 | 56.39620 | 31420 ft | 478 kts | 320° |
| 2026-05-08 21:54 | -18.55459 | 56.37425 | 31567 ft | 479 kts | 320° |
| 2026-05-08 21:54 | -18.52854 | 56.35224 | 31688 ft | 481 kts | 320° |
| 2026-05-08 21:54 | -18.50245 | 56.33021 | 31912 ft | 479 kts | 320° |
| 2026-05-08 21:54 | -18.47648 | 56.30833 | 32146 ft | 477 kts | 319° |
| 2026-05-08 21:55 | -18.45066 | 56.28656 | 32395 ft | 475 kts | 319° |
| 2026-05-08 21:55 | -18.42482 | 56.26479 | 32511 ft | 476 kts | 320° |
| 2026-05-08 21:56 | -18.34725 | 56.19942 | 33080 ft | 474 kts | 319° |
| 2026-05-08 21:56 | -18.32153 | 56.17777 | 33215 ft | 474 kts | 320° |
| 2026-05-08 21:56 | -18.29565 | 56.15600 | 33206 ft | 478 kts | 320° |
| 2026-05-08 21:57 | -18.24367 | 56.11232 | 33609 ft | 474 kts | 319° |
| 2026-05-08 21:57 | -18.21806 | 56.09081 | 33979 ft | 469 kts | 320° |
| 2026-05-08 21:57 | -18.19252 | 56.06942 | 34068 ft | 471 kts | 321° |
| 2026-05-08 21:58 | -18.13848 | 56.02986 | 34069 ft | 477 kts | 326° |
| 2026-05-08 21:58 | -18.08238 | 55.99208 | 34070 ft | 477 kts | 326° |
| 2026-05-08 21:59 | -18.02702 | 55.95423 | 34077 ft | 473 kts | 325° |
| 2026-05-08 21:59 | -17.97226 | 55.91603 | 34069 ft | 472 kts | 325° |
| 2026-05-08 22:00 | -17.91763 | 55.87770 | 34070 ft | 473 kts | 324° |
| 2026-05-08 22:00 | -17.86296 | 55.83939 | 34073 ft | 473 kts | 325° |
| 2026-05-08 22:01 | -17.80820 | 55.80108 | 34070 ft | 473 kts | 324° |
| 2026-05-08 22:01 | -17.75349 | 55.76283 | 34067 ft | 473 kts | 324° |
| 2026-05-08 22:02 | -17.69861 | 55.72452 | 34061 ft | 474 kts | 324° |
| 2026-05-08 22:02 | -17.64375 | 55.68623 | 34065 ft | 474 kts | 325° |
| 2026-05-08 22:03 | -17.58883 | 55.64787 | 34061 ft | 474 kts | 324° |
| 2026-05-08 22:03 | -17.53398 | 55.60963 | 34061 ft | 474 kts | 324° |
| 2026-05-08 22:04 | -17.47940 | 55.57166 | 34059 ft | 473 kts | 325° |
| 2026-05-08 22:04 | -17.42459 | 55.53338 | 34062 ft | 474 kts | 324° |
| 2026-05-08 22:05 | -17.36979 | 55.49482 | 34059 ft | 475 kts | 324° |
| 2026-05-08 22:05 | -17.31483 | 55.45643 | 34062 ft | 476 kts | 324° |
| 2026-05-08 22:06 | -17.25967 | 55.41816 | 34056 ft | 475 kts | 324° |
| 2026-05-08 22:06 | -17.20459 | 55.37994 | 34060 ft | 476 kts | 324° |